createdAt,value
2023-02-18T00:00:30.872Z,2.30
2023-02-18T00:03:17.873Z,2.00
2023-02-18T00:05:45.499Z,1.92
2023-02-18T00:08:12.369Z,1.92
2023-02-18T00:10:42.095Z,1.52
2023-02-18T00:13:09.273Z,1.90
2023-02-18T00:15:37.232Z,2.67
2023-02-18T00:18:05.623Z,2.35
2023-02-18T00:20:36.374Z,2.28
2023-02-18T00:23:03.782Z,2.00
2023-02-18T00:25:31.033Z,1.60
2023-02-18T00:27:57.999Z,2.13
2023-02-18T00:30:25.336Z,1.80
2023-02-18T00:32:55.628Z,1.73
2023-02-18T00:35:23.107Z,1.85
2023-02-18T00:37:52.831Z,2.38
2023-02-18T00:40:21.072Z,1.60
2023-02-18T00:42:48.150Z,1.83
2023-02-18T00:45:15.679Z,1.15
2023-02-18T00:47:43.034Z,2.42
2023-02-18T00:50:10.962Z,1.80
2023-02-18T00:52:38.041Z,2.53
2023-02-18T00:55:05.876Z,2.05
2023-02-18T00:57:33.349Z,1.92
2023-02-18T01:00:00.759Z,1.85
2023-02-18T01:02:27.776Z,2.08
2023-02-18T01:04:55.060Z,2.08
2023-02-18T01:07:22.012Z,1.80
2023-02-18T01:09:49.709Z,1.88
2023-02-18T01:12:16.881Z,1.65
2023-02-18T01:14:44.383Z,1.50
2023-02-18T01:17:11.448Z,1.60
2023-02-18T01:19:40.694Z,1.70
2023-02-18T01:22:07.741Z,1.58
2023-02-18T01:24:35.452Z,1.80
2023-02-18T01:27:02.428Z,1.90
2023-02-18T01:29:29.723Z,1.58
2023-02-18T01:31:57.217Z,1.55
2023-02-18T01:34:24.435Z,1.67
2023-02-18T01:36:51.792Z,1.58
2023-02-18T01:39:19.354Z,2.08
2023-02-18T01:41:46.452Z,2.42
2023-02-18T01:44:23.781Z,1.73
2023-02-18T01:46:50.898Z,2.17
2023-02-18T01:49:23.034Z,2.08
2023-02-18T01:52:02.267Z,2.17
2023-02-18T01:54:39.939Z,1.70
2023-02-18T01:57:11.854Z,1.80
2023-02-18T01:59:45.760Z,1.92
2023-02-18T02:02:17.102Z,1.50
2023-02-18T02:04:44.905Z,1.80
2023-02-18T02:07:12.511Z,1.70
2023-02-18T02:09:41.268Z,1.70
2023-02-18T02:12:30.020Z,1.55
2023-02-18T02:15:10.201Z,1.70
2023-02-18T02:18:01.857Z,1.60
2023-02-18T02:20:44.242Z,1.42
2023-02-18T02:23:42.867Z,2.25
2023-02-18T02:26:47.025Z,1.77
2023-02-18T02:29:51.526Z,1.42
2023-02-18T02:32:36.802Z,2.10
2023-02-18T02:35:14.051Z,1.73
2023-02-18T02:38:01.569Z,1.73
2023-02-18T02:40:44.029Z,1.77
2023-02-18T02:43:28.146Z,1.77
2023-02-18T02:45:59.385Z,1.88
2023-02-18T02:48:52.217Z,1.90
2023-02-18T02:51:36.158Z,1.70
2023-02-18T02:54:22.400Z,2.10
2023-02-18T02:56:49.671Z,2.80
2023-02-18T02:59:25.535Z,1.85
2023-02-18T03:02:18.455Z,1.88
2023-02-18T03:07:47.585Z,1.73
2023-02-18T03:10:26.081Z,1.83
2023-02-18T03:13:31.417Z,1.58
2023-02-18T03:16:14.374Z,2.00
2023-02-18T03:18:48.862Z,2.33
2023-02-18T03:21:26.818Z,1.85
2023-02-18T03:23:59.991Z,1.90
2023-02-18T03:26:31.625Z,1.92
2023-02-18T03:29:02.914Z,1.85
2023-02-18T03:34:07.947Z,1.83
2023-02-18T03:36:37.218Z,1.98
2023-02-18T03:39:18.816Z,2.33
2023-02-18T03:41:47.501Z,2.13
2023-02-18T03:44:14.530Z,2.90
2023-02-18T03:46:43.724Z,2.13
2023-02-18T03:49:12.445Z,2.13
2023-02-18T03:51:41.517Z,1.52
2023-02-18T03:54:09.198Z,2.00
2023-02-18T03:56:37.837Z,2.20
2023-02-18T03:59:04.927Z,1.90
2023-02-18T04:01:32.502Z,3.08
2023-02-18T04:03:59.439Z,2.55
2023-02-18T04:06:27.413Z,1.98
2023-02-18T04:08:55.274Z,1.73
2023-02-18T04:11:22.567Z,2.20
2023-02-18T04:13:49.517Z,1.92
2023-02-18T04:16:16.874Z,2.03
2023-02-18T04:18:43.832Z,2.20
2023-02-18T04:21:11.789Z,1.67
2023-02-18T04:23:38.761Z,1.60
2023-02-18T04:26:06.281Z,2.30
2023-02-18T04:28:33.500Z,2.00
2023-02-18T04:31:00.802Z,1.73
2023-02-18T04:33:27.747Z,1.90
2023-02-18T04:35:55.046Z,2.20
2023-02-18T04:38:22.006Z,2.58
2023-02-18T04:40:49.340Z,2.33
2023-02-18T04:43:16.309Z,2.40
2023-02-18T04:45:43.535Z,1.45
2023-02-18T04:48:10.513Z,2.03
2023-02-18T04:50:37.835Z,1.80
2023-02-18T04:53:04.999Z,2.00
2023-02-18T04:55:32.217Z,1.95
2023-02-18T04:57:59.224Z,1.38
2023-02-18T05:00:28.604Z,1.55
2023-02-18T05:02:55.697Z,1.60
2023-02-18T05:05:24.385Z,2.20
2023-02-18T05:07:52.285Z,2.45
2023-02-18T05:10:19.929Z,2.20
2023-02-18T05:12:47.402Z,2.08
2023-02-18T05:15:15.438Z,2.33
2023-02-18T05:17:46.611Z,1.90
2023-02-18T05:20:13.937Z,1.80
2023-02-18T05:22:46.013Z,2.05
2023-02-18T05:25:20.093Z,2.47
2023-02-18T05:27:47.639Z,1.95
2023-02-18T05:30:17.363Z,1.70
2023-02-18T05:32:44.677Z,2.22
2023-02-18T05:35:12.318Z,1.65
2023-02-18T05:37:40.141Z,2.08
2023-02-18T05:40:08.213Z,2.00
2023-02-18T05:42:36.520Z,1.75
2023-02-18T05:45:04.529Z,2.15
2023-02-18T05:47:36.521Z,2.25
2023-02-18T05:50:08.884Z,2.72
2023-02-18T05:52:46.753Z,2.45
2023-02-18T05:55:15.462Z,1.58
2023-02-18T05:57:46.385Z,2.58
2023-02-18T06:00:14.390Z,1.95
2023-02-18T06:02:41.699Z,2.55
2023-02-18T06:05:09.717Z,1.65
2023-02-18T06:07:36.831Z,1.70
2023-02-18T06:10:05.957Z,1.67
2023-02-18T06:12:33.228Z,2.03
2023-02-18T06:15:00.536Z,1.83
2023-02-18T06:17:27.688Z,2.60
2023-02-18T06:19:55.138Z,2.20
2023-02-18T06:22:22.615Z,2.22
2023-02-18T06:24:53.259Z,2.20
2023-02-18T06:27:21.215Z,2.97
2023-02-18T06:29:49.502Z,1.83
2023-02-18T06:32:16.870Z,1.95
2023-02-18T06:34:44.394Z,2.30
2023-02-18T06:37:12.141Z,2.40
2023-02-18T06:39:40.011Z,2.05
2023-02-18T06:42:07.727Z,2.28
2023-02-18T06:44:37.609Z,2.42
2023-02-18T06:47:05.163Z,2.20
2023-02-18T06:49:32.547Z,2.42
2023-02-18T06:52:00.114Z,2.35
2023-02-18T06:54:29.245Z,2.60
2023-02-18T06:56:57.796Z,1.95
2023-02-18T06:59:29.148Z,1.75
2023-02-18T07:04:27.390Z,1.83
2023-02-18T07:06:56.146Z,2.72
2023-02-18T07:09:24.996Z,2.75
2023-02-18T07:11:56.521Z,2.25
2023-02-18T07:14:25.153Z,2.60
2023-02-18T07:16:53.173Z,2.80
2023-02-18T07:19:21.746Z,2.08
2023-02-18T07:21:48.783Z,2.13
2023-02-18T07:24:17.880Z,2.25
2023-02-18T07:26:46.629Z,2.40
2023-02-18T07:29:14.414Z,1.92
2023-02-18T07:31:44.271Z,2.45
2023-02-18T07:34:12.061Z,2.13
2023-02-18T07:36:42.008Z,1.70
2023-02-18T07:39:13.739Z,3.25
2023-02-18T07:41:41.013Z,1.80
2023-02-18T07:44:16.087Z,2.28
2023-02-18T07:46:48.551Z,2.13
2023-02-18T07:49:18.364Z,2.97
2023-02-18T07:51:50.189Z,2.15
2023-02-18T07:54:18.270Z,2.33
2023-02-18T07:56:46.135Z,2.30
2023-02-18T07:59:19.860Z,2.97
2023-02-18T08:01:49.451Z,2.17
2023-02-18T08:04:19.450Z,2.55
2023-02-18T08:06:49.383Z,2.30
2023-02-18T08:09:18.188Z,2.75
2023-02-18T08:11:45.867Z,2.70
2023-02-18T08:14:13.331Z,2.17
2023-02-18T08:16:44.261Z,2.35
2023-02-18T08:19:13.116Z,2.60
2023-02-18T08:21:40.089Z,2.42
2023-02-18T08:24:08.741Z,2.10
2023-02-18T08:26:37.976Z,3.13
2023-02-18T08:29:11.209Z,2.58
2023-02-18T08:31:40.028Z,3.30
2023-02-18T08:34:09.384Z,2.40
2023-02-18T08:37:09.273Z,2.38
2023-02-18T08:39:39.786Z,2.95
2023-02-18T08:45:13.640Z,2.10
2023-02-18T08:48:17.372Z,2.70
2023-02-18T08:50:31.220Z,3.08
2023-02-18T08:53:30.050Z,2.15
2023-02-18T08:55:59.819Z,2.70
2023-02-18T08:58:28.672Z,1.80
2023-02-18T09:02:16.449Z,1.75
2023-02-18T09:04:44.596Z,2.33
2023-02-18T09:07:11.794Z,2.38
2023-02-18T09:09:39.864Z,2.38
2023-02-18T09:12:10.965Z,2.50
2023-02-18T09:14:38.894Z,2.45
2023-02-18T09:17:05.924Z,2.17
2023-02-18T09:19:33.693Z,3.60
2023-02-18T09:22:02.202Z,2.63
2023-02-18T09:24:29.789Z,2.58
2023-02-18T09:26:57.925Z,2.00
2023-02-18T09:29:25.182Z,2.00
2023-02-18T09:31:53.048Z,2.85
2023-02-18T09:34:21.093Z,2.60
2023-02-18T09:36:49.102Z,2.58
2023-02-18T09:39:19.403Z,2.22
2023-02-18T09:41:56.511Z,2.03
2023-02-18T09:44:46.866Z,2.05
2023-02-18T09:47:26.757Z,2.47
2023-02-18T09:50:00.248Z,1.85
2023-02-18T09:52:34.708Z,1.88
2023-02-18T09:55:17.653Z,3.25
2023-02-18T09:57:48.950Z,2.53
2023-02-18T10:00:36.193Z,2.72
2023-02-18T10:03:14.986Z,2.58
2023-02-18T10:06:05.468Z,2.08
2023-02-18T10:08:45.500Z,2.90
2023-02-18T11:50:50.569Z,2.53
2023-02-18T11:53:33.814Z,3.45
2023-02-18T11:56:05.210Z,3.13
2023-02-18T12:01:21.037Z,3.65
2023-02-18T12:08:13.313Z,2.50
2023-02-18T12:10:49.265Z,3.13
2023-02-18T12:13:22.963Z,3.38
2023-02-18T12:15:50.066Z,3.40
2023-02-18T12:18:20.426Z,2.40
2023-02-18T12:21:55.833Z,2.75
2023-02-18T12:24:52.508Z,2.80
2023-02-18T12:27:25.414Z,2.97
2023-02-18T12:29:58.300Z,3.05
2023-02-18T12:32:52.406Z,2.80
2023-02-18T13:20:42.732Z,2.25
2023-02-18T13:23:22.884Z,2.50
2023-02-18T13:25:59.495Z,2.88
2023-02-18T13:28:42.782Z,3.22
2023-02-18T13:31:35.440Z,2.65
2023-02-18T13:34:36.504Z,3.42
2023-02-18T13:37:30.914Z,3.90
2023-02-18T13:40:00.483Z,3.00
2023-02-18T13:42:30.633Z,2.80
2023-02-18T13:44:57.610Z,3.35
2023-02-18T13:47:42.787Z,3.90
2023-02-18T13:50:21.989Z,2.78
2023-02-18T13:52:51.579Z,3.60
2023-02-18T13:55:26.071Z,2.45
2023-02-18T13:57:55.547Z,2.60
2023-02-18T14:00:25.972Z,2.38
2023-02-18T14:03:20.170Z,3.23
2023-02-18T14:05:47.539Z,2.70
2023-02-18T14:08:31.074Z,2.97
2023-02-18T14:11:12.716Z,3.15
2023-02-18T14:13:42.798Z,2.95
2023-02-18T14:16:10.933Z,2.63
2023-02-18T14:18:41.411Z,3.20
2023-02-18T14:21:14.607Z,2.53
2023-02-18T14:24:04.130Z,2.35
2023-02-18T14:26:51.022Z,2.25
2023-02-18T14:29:30.172Z,3.65
2023-02-18T14:32:02.326Z,3.45
2023-02-18T14:34:38.697Z,3.20
2023-02-18T14:37:29.978Z,3.33
2023-02-18T14:40:22.070Z,2.70
2023-02-18T14:43:33.367Z,2.53
2023-02-18T14:46:08.369Z,3.03
2023-02-18T14:49:07.471Z,3.15
2023-02-18T14:51:35.407Z,2.28
2023-02-18T14:54:06.650Z,3.15
2023-02-18T14:56:39.713Z,3.42
2023-02-18T14:59:07.177Z,4.25
2023-02-18T15:01:36.271Z,3.35
2023-02-18T15:04:04.797Z,3.30
2023-02-18T15:06:33.928Z,3.08
2023-02-18T15:09:04.066Z,2.53
2023-02-18T15:11:39.760Z,2.17
2023-02-18T15:14:17.498Z,1.88
2023-02-18T15:16:46.762Z,2.17
2023-02-18T15:19:20.107Z,1.98
2023-02-18T15:21:50.264Z,2.38
2023-02-18T15:24:37.811Z,2.33
2023-02-18T15:27:23.856Z,2.00
2023-02-18T15:29:53.518Z,1.50
2023-02-18T15:32:27.548Z,2.40
2023-02-18T15:35:03.919Z,1.70
2023-02-18T15:37:31.891Z,1.70
2023-02-18T15:39:59.022Z,1.63
2023-02-18T15:42:31.568Z,1.10
2023-02-18T15:45:04.375Z,1.15
2023-02-18T15:47:32.680Z,1.20
2023-02-18T15:50:02.851Z,1.60
2023-02-18T15:52:33.214Z,1.65
2023-02-18T15:55:34.372Z,1.38
2023-02-18T15:58:05.524Z,2.10
2023-02-18T16:00:39.349Z,2.72
2023-02-18T16:03:16.093Z,2.97
2023-02-18T16:05:43.328Z,2.67
2023-02-18T16:08:25.472Z,2.65
2023-02-18T16:11:03.035Z,2.35
2023-02-18T16:13:31.902Z,3.13
2023-02-18T16:16:01.114Z,3.35
2023-02-18T16:18:39.579Z,2.60
2023-02-18T16:21:31.440Z,2.78
2023-02-18T16:24:01.390Z,3.22
2023-02-18T16:26:40.239Z,3.00
2023-02-18T16:29:17.033Z,3.47
2023-02-18T16:31:44.384Z,3.33
2023-02-18T16:34:11.695Z,3.40
2023-02-18T16:36:58.741Z,3.03
2023-02-18T16:39:27.910Z,4.13
2023-02-18T16:41:54.868Z,3.20
2023-02-18T16:44:22.333Z,3.38
2023-02-18T16:46:49.705Z,2.85
2023-02-18T16:49:17.962Z,2.95
2023-02-18T16:51:44.941Z,3.28
2023-02-18T16:54:13.068Z,3.10
2023-02-18T16:56:40.819Z,3.05
2023-02-18T16:59:08.495Z,3.17
2023-02-18T17:01:42.713Z,3.22
2023-02-18T17:04:20.087Z,3.38
2023-02-18T17:06:47.396Z,3.80
2023-02-18T17:09:22.301Z,2.97
2023-02-18T17:11:52.007Z,3.03
2023-02-18T17:14:21.761Z,5.75
2023-02-18T17:16:51.455Z,3.58
2023-02-18T17:19:18.735Z,3.13
2023-02-18T17:21:48.359Z,3.20
2023-02-18T17:24:18.607Z,3.17
2023-02-18T17:26:45.678Z,3.35
2023-02-18T17:29:13.810Z,3.20
2023-02-18T17:31:47.553Z,2.85
2023-02-18T17:34:21.834Z,3.20
2023-02-18T17:36:48.694Z,3.30
2023-02-18T17:39:18.038Z,3.70
2023-02-18T17:41:45.524Z,3.95
2023-02-18T17:44:21.169Z,4.18
2023-02-18T17:46:49.975Z,5.63
2023-02-18T17:49:17.362Z,3.92
2023-02-18T17:51:44.611Z,4.97
2023-02-18T17:54:14.718Z,4.80
2023-02-18T17:56:42.417Z,4.13
2023-02-18T17:59:09.729Z,4.93
2023-02-18T18:01:37.210Z,4.85
2023-02-18T18:04:04.706Z,4.15
2023-02-18T18:06:32.427Z,4.15
2023-02-18T18:08:59.570Z,4.20
2023-02-18T18:11:26.756Z,4.18
2023-02-18T18:13:54.295Z,4.47
2023-02-18T18:16:21.853Z,4.30
2023-02-18T18:18:49.299Z,4.13
2023-02-18T18:21:32.766Z,3.72
2023-02-18T18:24:00.522Z,3.63
2023-02-18T18:26:27.993Z,4.50
2023-02-18T18:28:56.400Z,4.50
2023-02-18T18:31:23.703Z,4.80
2023-02-18T18:33:53.569Z,5.07
2023-02-18T18:36:22.137Z,5.03
2023-02-18T18:38:49.466Z,5.80
2023-02-18T18:41:19.682Z,5.65
2023-02-18T18:43:47.136Z,5.00
2023-02-18T18:46:14.110Z,4.88
2023-02-18T18:48:42.001Z,5.72
2023-02-18T18:51:16.013Z,4.47
2023-02-18T18:53:43.701Z,5.60
2023-02-18T18:56:12.225Z,5.70
2023-02-18T18:58:39.565Z,5.95
2023-02-18T19:01:15.717Z,5.90
2023-02-18T19:03:43.523Z,5.85
2023-02-18T19:06:12.125Z,5.50
2023-02-18T19:08:39.766Z,5.95
2023-02-18T19:11:07.108Z,5.43
2023-02-18T19:13:36.233Z,5.90
2023-02-18T19:16:18.425Z,5.20
2023-02-18T19:18:46.619Z,5.68
2023-02-18T19:21:13.813Z,6.10
2023-02-18T19:23:41.193Z,5.75
2023-02-18T19:26:08.578Z,4.95
2023-02-18T19:28:36.159Z,5.20
2023-02-18T19:31:11.304Z,5.43
2023-02-18T19:33:39.572Z,4.70
2023-02-18T19:36:11.707Z,5.93
2023-02-18T19:38:39.371Z,5.32
2023-02-18T19:41:08.932Z,5.45
2023-02-18T19:43:36.558Z,5.13
2023-02-18T19:46:12.192Z,5.32
2023-02-18T19:48:40.394Z,5.53
2023-02-18T19:51:08.869Z,5.28
2023-02-18T19:53:36.321Z,5.90
2023-02-18T19:56:07.414Z,5.65
2023-02-18T20:01:03.112Z,5.45
2023-02-18T20:03:30.662Z,5.50
2023-02-18T20:05:57.832Z,5.88
2023-02-18T20:08:25.093Z,5.60
2023-02-18T20:10:59.060Z,5.82
2023-02-18T20:13:27.134Z,6.85
2023-02-18T20:15:54.948Z,6.30
2023-02-18T20:18:22.426Z,7.10
2023-02-18T20:20:50.306Z,6.55
2023-02-18T20:23:18.274Z,6.60
2023-02-18T20:25:47.655Z,7.40
2023-02-18T20:28:15.565Z,7.43
2023-02-18T20:30:42.817Z,6.97
2023-02-18T20:33:10.423Z,6.55
2023-02-18T20:35:37.593Z,5.75
2023-02-18T20:38:05.107Z,5.80
2023-02-18T20:40:32.701Z,6.95
2023-02-18T20:42:59.977Z,6.53
2023-02-18T20:45:26.874Z,7.22
2023-02-18T20:47:54.132Z,7.05
2023-02-18T20:50:21.862Z,6.88
2023-02-18T20:52:49.093Z,7.35
2023-02-18T20:55:16.132Z,7.40
2023-02-18T20:57:43.623Z,8.38
2023-02-18T21:00:11.770Z,7.97
2023-02-18T21:02:39.117Z,8.38
2023-02-18T21:05:06.536Z,7.70
2023-02-18T21:07:33.920Z,7.93
2023-02-18T21:10:00.976Z,7.18
2023-02-18T21:12:28.226Z,7.60
2023-02-18T21:14:55.221Z,7.35
2023-02-18T21:17:22.978Z,7.43
2023-02-18T21:19:49.930Z,8.40
2023-02-18T21:22:17.171Z,8.05
2023-02-18T21:24:44.252Z,7.07
2023-02-18T21:27:11.687Z,7.50
2023-02-18T21:29:38.640Z,7.88
2023-02-18T21:32:06.061Z,7.07
2023-02-18T21:34:32.991Z,6.40
2023-02-18T21:37:00.547Z,6.60
2023-02-18T21:39:27.439Z,6.50
2023-02-18T21:41:54.645Z,7.00
2023-02-18T21:44:29.943Z,6.13
2023-02-18T21:47:03.933Z,6.30
2023-02-18T21:49:30.980Z,6.28
2023-02-18T21:52:02.254Z,6.45
2023-02-18T21:54:33.739Z,5.93
2023-02-18T21:57:03.922Z,5.82
2023-02-18T21:59:33.016Z,6.63
2023-02-18T22:02:00.468Z,5.90
2023-02-18T22:04:32.861Z,5.72
2023-02-18T22:07:00.475Z,6.10
2023-02-18T22:09:27.743Z,5.95
2023-02-18T22:11:55.185Z,6.32
2023-02-18T22:14:22.731Z,6.00
2023-02-18T22:16:49.649Z,5.78
2023-02-18T22:19:16.872Z,6.30
2023-02-18T22:21:44.502Z,6.00
2023-02-18T22:24:13.868Z,7.25
2023-02-18T22:26:41.574Z,6.18
2023-02-18T22:29:10.631Z,6.68
2023-02-18T22:31:39.080Z,6.93
2023-02-18T22:34:06.352Z,6.18
2023-02-18T22:36:33.542Z,6.15
2023-02-18T22:39:01.567Z,6.05
2023-02-18T22:41:30.712Z,6.20
2023-02-18T22:44:00.427Z,6.55
2023-02-18T22:46:28.418Z,5.97
2023-02-18T22:48:56.543Z,5.32
2023-02-18T22:51:26.847Z,6.25
2023-02-18T22:53:55.570Z,5.70
2023-02-18T22:56:24.660Z,6.28
2023-02-18T22:58:53.440Z,5.90
2023-02-18T23:01:23.269Z,6.05
2023-02-18T23:03:52.513Z,5.72
2023-02-18T23:06:21.356Z,5.72
2023-02-18T23:08:49.847Z,4.90
2023-02-18T23:11:19.528Z,6.70
2023-02-18T23:14:07.844Z,6.45
2023-02-18T23:16:56.570Z,6.65
2023-02-18T23:19:25.582Z,7.10
2023-02-18T23:21:53.186Z,6.97
2023-02-18T23:24:21.038Z,6.85
2023-02-18T23:26:48.905Z,7.05
2023-02-18T23:29:16.413Z,7.30
2023-02-18T23:31:43.552Z,7.97
2023-02-18T23:34:15.489Z,7.53
2023-02-18T23:36:43.122Z,7.78
2023-02-18T23:39:13.487Z,7.25
2023-02-18T23:41:40.764Z,7.20
2023-02-18T23:44:11.772Z,5.95
2023-02-18T23:46:39.424Z,5.53
2023-02-18T23:49:06.784Z,6.22
2023-02-18T23:51:33.911Z,5.72
2023-02-18T23:54:03.781Z,5.50
2023-02-18T23:56:30.770Z,5.22
2023-02-18T23:59:00.595Z,5.47
